Time;durP1;ratioP1;P1;durP2;ratioP2;P2;SDS_P1;SDS_P2;PMS_P1;PMS_P2;Temp;Humidity;BMP_temperature;BMP_pressure;BME280_temperature;BME280_humidity;BME280_pressure;Samples;Min_cycle;Max_cycle;Signal;HPM_P1;HPM_P2
2023/03/25 00:01:08;;;;;;;6.10;5.07;;;10.20;80.00;;;;;;4980761;28;20182;-74
2023/03/25 00:03:40;;;;;;;5.93;4.70;;;10.20;80.00;;;;;;4979641;28;20281;-74
2023/03/25 00:06:07;;;;;;;4.25;3.80;;;10.20;80.10;;;;;;4979838;28;20178;-74
2023/03/25 00:08:33;;;;;;;5.35;4.82;;;10.10;80.40;;;;;;4980191;28;20197;-74
2023/03/25 00:11:02;;;;;;;6.30;4.40;;;10.10;80.70;;;;;;4981902;28;20205;-74
2023/03/25 00:13:30;;;;;;;6.75;4.43;;;10.10;79.90;;;;;;4981218;28;20194;-75
2023/03/25 00:16:00;;;;;;;6.40;3.85;;;10.10;80.40;;;;;;4981158;28;20259;-75
2023/03/25 00:18:28;;;;;;;5.80;4.43;;;10.00;80.80;;;;;;4978243;28;20265;-74
2023/03/25 00:20:55;;;;;;;6.83;4.63;;;10.00;80.90;;;;;;4976784;28;20206;-75
2023/03/25 00:23:21;;;;;;;7.53;5.57;;;10.00;81.10;;;;;;4978962;28;20301;-75
2023/03/25 00:25:48;;;;;;;4.53;4.10;;;9.90;81.10;;;;;;4976208;28;20572;-75
2023/03/25 00:28:15;;;;;;;4.27;3.87;;;9.90;81.00;;;;;;4982897;28;20251;-74
2023/03/25 00:30:42;;;;;;;4.33;4.03;;;9.90;81.10;;;;;;4981525;28;20291;-74
2023/03/25 00:33:12;;;;;;;3.73;3.43;;;9.80;81.30;;;;;;4983348;28;20213;-74
2023/03/25 00:35:43;;;;;;;4.50;3.37;;;9.80;81.20;;;;;;4981503;28;20212;-74
2023/03/25 00:38:12;;;;;;;6.50;4.80;;;9.70;81.60;;;;;;4977117;28;20178;-75
2023/03/25 00:40:38;;;;;;;4.73;4.23;;;9.70;81.60;;;;;;4995780;28;20182;-74
2023/03/25 00:43:05;;;;;;;4.47;4.17;;;9.60;82.00;;;;;;4982839;28;20182;-74
2023/03/25 00:45:31;;;;;;;5.17;3.47;;;9.60;82.00;;;;;;4980885;28;20280;-74
2023/03/25 00:47:57;;;;;;;3.93;3.63;;;9.60;82.10;;;;;;4977199;28;20198;-74
2023/03/25 00:50:26;;;;;;;6.10;3.90;;;9.50;82.50;;;;;;4983841;28;20173;-74
2023/03/25 00:52:54;;;;;;;4.30;3.90;;;9.50;82.30;;;;;;4977084;28;20210;-74
2023/03/25 00:55:20;;;;;;;10.45;3.45;;;9.50;82.40;;;;;;4980544;28;20605;-74
2023/03/25 00:57:46;;;;;;;4.33;3.93;;;9.40;82.40;;;;;;4976581;28;20560;-76
2023/03/25 01:00:15;;;;;;;3.50;3.20;;;9.40;82.60;;;;;;4982073;28;20181;-74
2023/03/25 01:02:41;;;;;;;4.03;3.57;;;9.40;82.70;;;;;;4982054;28;20186;-74
2023/03/25 01:05:09;;;;;;;6.17;4.60;;;9.40;82.80;;;;;;4983604;28;20714;-74
2023/03/25 01:07:36;;;;;;;5.40;4.40;;;9.40;82.70;;;;;;4974498;28;20244;-74
2023/03/25 01:10:04;;;;;;;5.13;3.80;;;9.40;82.90;;;;;;4970759;28;20190;-73
2023/03/25 01:12:29;;;;;;;3.67;3.37;;;9.40;82.50;;;;;;4973126;28;20214;-74
2023/03/25 01:14:55;;;;;;;3.77;3.47;;;9.40;82.70;;;;;;4971245;28;20243;-74
2023/03/25 01:17:21;;;;;;;6.40;3.70;;;9.40;82.60;;;;;;4971054;28;21263;-74
2023/03/25 01:19:47;;;;;;;6.63;4.17;;;9.40;82.70;;;;;;4979562;28;20663;-75
2023/03/25 01:22:12;;;;;;;4.93;3.90;;;9.40;82.60;;;;;;4985183;28;20188;-74
2023/03/25 01:24:38;;;;;;;3.80;3.03;;;9.50;82.40;;;;;;4979821;28;20186;-74
2023/03/25 01:27:03;;;;;;;4.30;3.07;;;9.50;82.50;;;;;;4978641;28;20308;-74
2023/03/25 01:29:30;;;;;;;3.50;3.23;;;9.50;82.50;;;;;;4983414;28;20217;-75
2023/03/25 01:31:56;;;;;;;5.77;4.10;;;9.40;82.50;;;;;;4985946;28;20190;-75
2023/03/25 01:34:22;;;;;;;3.97;3.50;;;9.40;82.60;;;;;;4981494;28;20229;-75
2023/03/25 01:36:48;;;;;;;4.17;3.47;;;9.40;82.60;;;;;;4977217;28;20265;-75
2023/03/25 01:39:17;;;;;;;3.80;3.53;;;9.40;82.60;;;;;;4980214;28;20177;-75
2023/03/25 01:41:44;;;;;;;3.10;2.90;;;9.40;82.50;;;;;;4975125;28;20197;-75
2023/03/25 01:44:13;;;;;;;3.80;3.50;;;9.40;82.70;;;;;;4979256;28;20201;-74
2023/03/25 01:46:44;;;;;;;5.23;3.33;;;9.40;82.60;;;;;;4975717;28;20178;-75
2023/03/25 01:49:20;;;;;;;3.20;2.97;;;9.40;82.80;;;;;;4981427;28;20181;-75
2023/03/25 01:51:48;;;;;;;4.13;3.83;;;9.30;83.00;;;;;;4979586;28;20216;-74
2023/03/25 01:54:16;;;;;;;3.83;3.30;;;9.30;82.90;;;;;;4978741;28;20922;-74
2023/03/25 01:56:46;;;;;;;3.97;3.50;;;9.30;83.00;;;;;;4979188;28;20265;-74
2023/03/25 01:59:14;;;;;;;6.20;3.53;;;9.30;83.00;;;;;;4977230;28;20304;-74
2023/03/25 02:01:44;;;;;;;3.43;3.23;;;9.30;83.00;;;;;;4976662;28;20232;-74
2023/03/25 02:04:13;;;;;;;5.07;3.47;;;9.30;83.00;;;;;;4975683;28;20184;-74
2023/03/25 02:06:42;;;;;;;5.10;3.23;;;9.20;83.20;;;;;;4978165;28;20174;-75
2023/03/25 02:09:10;;;;;;;4.27;3.40;;;9.20;83.10;;;;;;4978167;28;20247;-75
2023/03/25 02:11:37;;;;;;;3.27;3.07;;;9.20;83.30;;;;;;4977589;28;20188;-74
2023/03/25 02:14:07;;;;;;;5.00;3.90;;;9.10;83.40;;;;;;4980248;28;20218;-74
2023/03/25 02:16:42;;;;;;;3.27;2.97;;;9.10;83.80;;;;;;4978827;28;20240;-74
2023/03/25 02:19:31;;;;;;;4.03;3.67;;;9.10;83.60;;;;;;4979343;28;20956;-74
2023/03/25 02:22:36;;;;;;;4.37;3.07;;;9.10;83.50;;;;;;4981680;28;20184;-74
2023/03/25 02:25:34;;;;;;;3.40;3.13;;;9.00;83.90;;;;;;4976234;28;20315;-74
2023/03/25 02:28:28;;;;;;;4.87;3.57;;;8.90;83.90;;;;;;4978274;28;20644;-74
2023/03/25 02:30:53;;;;;;;4.93;3.47;;;8.90;83.70;;;;;;4982887;28;20178;-75
2023/03/25 02:34:00;;;;;;;4.40;4.00;;;8.80;84.40;;;;;;4977629;28;20277;-74
2023/03/25 02:36:29;;;;;;;4.67;3.13;;;8.80;84.30;;;;;;4965992;28;20597;-74
2023/03/25 02:39:10;;;;;;;4.03;3.30;;;8.80;84.30;;;;;;4962895;28;20187;-74
2023/03/25 02:41:54;;;;;;;8.47;3.20;;;8.80;83.80;;;;;;4964604;28;20185;-74
2023/03/25 02:44:38;;;;;;;5.47;3.17;;;8.70;83.80;;;;;;4945716;28;20209;-74
2023/03/25 02:47:08;;;;;;;3.30;3.10;;;8.70;84.30;;;;;;4962880;28;20598;-74
2023/03/25 02:49:47;;;;;;;4.33;3.83;;;8.70;84.60;;;;;;4963322;28;20771;-74
2023/03/25 02:52:15;;;;;;;2.97;2.77;;;8.60;84.70;;;;;;4965019;28;20707;-74
2023/03/25 02:54:44;;;;;;;8.70;3.50;;;8.60;84.80;;;;;;4962784;28;20210;-74
2023/03/25 02:57:14;;;;;;;3.03;2.90;;;8.70;84.20;;;;;;4965005;28;20178;-74
2023/03/25 02:59:40;;;;;;;4.70;3.13;;;8.60;84.60;;;;;;4963476;28;20703;-74
2023/03/25 03:02:10;;;;;;;3.43;3.23;;;8.60;84.80;;;;;;4962725;28;20197;-74
2023/03/25 03:04:54;;;;;;;3.00;2.73;;;8.60;84.70;;;;;;4963208;28;20635;-74
2023/03/25 03:07:28;;;;;;;3.23;2.63;;;8.60;84.60;;;;;;4973719;28;20276;-75
2023/03/25 03:10:02;;;;;;;3.83;3.13;;;8.60;84.80;;;;;;4977745;28;20618;-75
2023/03/25 03:12:52;;;;;;;4.27;3.10;;;8.50;84.80;;;;;;4978117;28;20323;-75
2023/03/25 03:15:41;;;;;;;3.17;2.97;;;8.50;85.00;;;;;;4978380;28;20181;-74
2023/03/25 03:18:33;;;;;;;4.20;3.13;;;8.50;85.20;;;;;;4976174;28;20280;-74
2023/03/25 03:21:22;;;;;;;4.47;3.13;;;8.40;85.30;;;;;;4941696;28;20270;-74
2023/03/25 03:24:18;;;;;;;2.97;2.77;;;8.40;85.20;;;;;;4943218;28;20232;-74
2023/03/25 03:27:02;;;;;;;2.97;2.83;;;8.40;85.80;;;;;;4944154;29;20190;-74
2023/03/25 03:29:44;;;;;;;3.43;3.20;;;8.40;85.80;;;;;;4943524;28;20194;-74
2023/03/25 03:32:17;;;;;;;3.23;2.73;;;8.40;85.60;;;;;;4943817;28;20202;-75
2023/03/25 03:34:48;;;;;;;4.27;2.80;;;8.40;85.60;;;;;;4944465;28;20187;-74
2023/03/25 03:37:33;;;;;;;3.10;2.90;;;8.40;85.70;;;;;;4928496;29;20198;-76
2023/03/25 03:40:02;;;;;;;3.80;2.83;;;8.30;85.40;;;;;;4941907;28;20613;-76
2023/03/25 03:42:42;;;;;;;2.70;2.50;;;8.30;85.60;;;;;;4928532;29;20179;-75
2023/03/25 03:45:23;;;;;;;4.10;2.83;;;8.30;85.50;;;;;;4942635;28;20362;-74
2023/03/25 03:47:53;;;;;;;2.67;2.43;;;8.20;85.60;;;;;;4942308;28;20183;-75
2023/03/25 03:50:23;;;;;;;4.70;3.27;;;8.20;85.70;;;;;;4943184;28;20180;-75
2023/03/25 03:53:01;;;;;;;2.70;2.33;;;8.20;85.80;;;;;;4944454;28;20222;-74
2023/03/25 03:55:40;;;;;;;2.17;2.07;;;8.20;85.90;;;;;;4944598;29;20245;-75
2023/03/25 03:58:37;;;;;;;4.33;2.80;;;8.10;86.00;;;;;;4961196;28;20194;-75
2023/03/25 04:01:29;;;;;;;4.50;3.07;;;8.10;85.80;;;;;;4975405;28;20178;-75
2023/03/25 04:04:05;;;;;;;5.13;2.83;;;8.10;86.10;;;;;;4974989;28;20183;-75
2023/03/25 04:06:55;;;;;;;3.20;3.00;;;8.10;86.30;;;;;;4979336;28;20660;-74
2023/03/25 04:09:33;;;;;;;4.57;3.13;;;8.00;86.10;;;;;;4974071;28;20263;-75
2023/03/25 04:12:05;;;;;;;2.93;2.73;;;8.00;86.30;;;;;;4980078;28;20223;-75
2023/03/25 04:14:31;;;;;;;2.57;2.47;;;8.00;86.70;;;;;;4978634;28;20233;-75
2023/03/25 04:16:58;;;;;;;2.57;2.43;;;8.00;87.00;;;;;;4977607;28;20241;-75
2023/03/25 04:19:25;;;;;;;4.43;3.23;;;8.00;87.00;;;;;;4976307;28;20182;-75
2023/03/25 04:21:52;;;;;;;5.00;2.70;;;8.00;86.90;;;;;;4980377;28;20174;-75
2023/03/25 04:24:18;;;;;;;3.83;2.83;;;8.00;86.80;;;;;;4976971;28;20570;-75
2023/03/25 04:26:45;;;;;;;6.60;2.80;;;8.00;85.90;;;;;;4979962;28;20193;-75
2023/03/25 04:29:12;;;;;;;3.20;2.97;;;8.00;86.70;;;;;;4977325;28;20629;-75
2023/03/25 04:31:44;;;;;;;4.20;2.90;;;8.00;86.80;;;;;;4980231;28;20193;-75
2023/03/25 04:34:12;;;;;;;3.33;3.07;;;8.00;86.70;;;;;;4977186;28;20730;-75
2023/03/25 04:36:41;;;;;;;3.23;2.87;;;8.00;86.90;;;;;;4977865;28;20186;-74
2023/03/25 04:39:08;;;;;;;2.80;2.60;;;8.00;86.90;;;;;;4981594;28;20192;-74
2023/03/25 04:41:34;;;;;;;3.33;2.53;;;8.00;87.00;;;;;;4980064;28;20562;-75
2023/03/25 04:44:00;;;;;;;2.67;2.47;;;8.10;87.00;;;;;;4984502;28;20202;-74
2023/03/25 04:46:25;;;;;;;3.00;2.73;;;8.10;86.90;;;;;;4982420;28;20249;-74
2023/03/25 04:48:52;;;;;;;3.50;3.27;;;8.10;86.90;;;;;;4977296;28;20178;-74
2023/03/25 04:51:18;;;;;;;3.47;3.20;;;8.10;86.80;;;;;;4980178;28;20297;-74
2023/03/25 04:53:44;;;;;;;3.77;2.97;;;8.20;86.90;;;;;;4979733;28;20974;-75
2023/03/25 04:56:16;;;;;;;3.67;2.83;;;8.20;86.70;;;;;;4978411;28;20186;-74
2023/03/25 04:58:45;;;;;;;3.23;2.97;;;8.20;86.30;;;;;;4983800;28;20184;-74
2023/03/25 05:01:29;;;;;;;5.07;4.60;;;8.20;86.40;;;;;;4982984;28;20574;-74
2023/03/25 05:04:05;;;;;;;6.10;3.20;;;8.20;84.20;;;;;;4976060;28;20671;-74
2023/03/25 05:06:37;;;;;;;2.37;2.27;;;8.30;85.50;;;;;;4979116;28;20659;-74
2023/03/25 05:09:04;;;;;;;2.83;2.63;;;8.30;85.20;;;;;;4978575;28;20190;-75
2023/03/25 05:11:32;;;;;;;2.80;2.60;;;8.40;84.40;;;;;;4981561;28;20181;-75
2023/03/25 05:13:58;;;;;;;2.83;2.57;;;8.40;85.20;;;;;;4983307;28;20214;-75
2023/03/25 05:16:23;;;;;;;2.90;2.70;;;8.40;85.40;;;;;;4984980;28;20182;-75
2023/03/25 05:18:49;;;;;;;3.73;2.60;;;8.40;85.40;;;;;;4984038;28;20658;-75
2023/03/25 05:21:16;;;;;;;3.67;2.37;;;8.50;85.50;;;;;;4982411;28;20182;-75
2023/03/25 05:23:42;;;;;;;2.43;2.33;;;8.50;85.40;;;;;;4978935;28;20194;-75
2023/03/25 05:26:08;;;;;;;5.10;3.20;;;8.60;85.40;;;;;;4981807;28;20746;-74
2023/03/25 05:28:34;;;;;;;4.83;2.60;;;8.60;85.40;;;;;;4981146;28;20259;-73
2023/03/25 05:31:07;;;;;;;2.60;2.47;;;8.70;85.00;;;;;;4980793;28;20266;-74
2023/03/25 05:33:42;;;;;;;3.17;2.90;;;8.70;85.20;;;;;;4982457;28;20233;-73
2023/03/25 05:36:15;;;;;;;4.63;2.70;;;8.80;85.00;;;;;;4978256;28;20240;-73
2023/03/25 05:38:42;;;;;;;4.13;2.97;;;8.90;84.90;;;;;;4972275;28;20276;-73
2023/03/25 05:41:10;;;;;;;2.73;2.53;;;8.90;85.00;;;;;;4981554;28;20265;-73
2023/03/25 05:43:37;;;;;;;2.33;2.23;;;9.00;85.00;;;;;;4981724;28;20194;-73
2023/03/25 05:46:04;;;;;;;3.33;2.97;;;9.10;84.80;;;;;;4982141;28;20212;-73
2023/03/25 05:48:31;;;;;;;3.03;2.83;;;9.20;84.80;;;;;;4981678;28;20173;-73
2023/03/25 05:51:01;;;;;;;3.97;3.53;;;9.20;84.80;;;;;;4978181;28;20269;-73
2023/03/25 05:53:29;;;;;;;3.23;3.03;;;9.30;84.50;;;;;;4974438;28;20277;-74
2023/03/25 05:55:55;;;;;;;2.90;2.80;;;9.40;84.30;;;;;;4979691;28;20245;-73
2023/03/25 05:58:21;;;;;;;3.80;3.50;;;9.50;83.90;;;;;;4978483;28;20182;-73
2023/03/25 06:00:47;;;;;;;3.43;3.17;;;9.60;83.00;;;;;;4976559;28;20319;-74
2023/03/25 06:03:13;;;;;;;4.90;3.73;;;9.70;83.60;;;;;;4978680;28;20190;-74
2023/03/25 06:05:39;;;;;;;3.30;3.13;;;9.80;83.40;;;;;;4979324;28;20181;-72
2023/03/25 06:08:04;;;;;;;4.67;3.40;;;9.90;84.10;;;;;;4982281;28;20182;-73
2023/03/25 06:10:31;;;;;;;2.83;2.57;;;10.00;84.20;;;;;;4980028;28;20188;-73
2023/03/25 06:12:56;;;;;;;3.10;2.70;;;10.00;84.10;;;;;;4980698;28;20232;-73
2023/03/25 06:15:27;;;;;;;3.03;2.87;;;10.10;83.20;;;;;;4976477;28;20179;-73
2023/03/25 06:17:56;;;;;;;3.23;2.93;;;10.20;82.20;;;;;;4982625;28;20174;-73
2023/03/25 06:20:22;;;;;;;3.43;3.23;;;10.30;82.10;;;;;;4978075;28;20780;-73
2023/03/25 06:22:48;;;;;;;3.30;2.90;;;10.40;82.00;;;;;;4978040;28;20240;-73
2023/03/25 06:25:19;;;;;;;3.45;3.03;;;10.50;81.90;;;;;;4979098;28;20253;-74
2023/03/25 06:27:49;;;;;;;4.75;3.53;;;10.60;81.50;;;;;;4975158;28;20186;-74
2023/03/25 06:30:19;;;;;;;3.00;2.80;;;10.70;81.50;;;;;;4975502;28;20208;-74
2023/03/25 06:32:49;;;;;;;3.72;3.45;;;10.80;81.40;;;;;;4979771;28;20233;-74
2023/03/25 06:35:18;;;;;;;5.78;3.00;;;10.90;81.30;;;;;;4977418;28;20778;-72
2023/03/25 06:37:45;;;;;;;3.08;2.83;;;11.00;80.90;;;;;;4973660;28;20329;-74
2023/03/25 06:40:12;;;;;;;4.47;2.65;;;11.10;80.70;;;;;;4976001;28;20184;-74
2023/03/25 06:42:38;;;;;;;4.85;3.63;;;11.20;80.40;;;;;;4974267;28;20185;-74
2023/03/25 06:45:04;;;;;;;6.28;3.88;;;11.30;79.60;;;;;;4973928;28;20198;-74
2023/03/25 06:47:30;;;;;;;5.85;4.18;;;11.40;79.40;;;;;;4981659;28;20190;-74
2023/03/25 06:49:56;;;;;;;4.85;4.10;;;11.50;79.60;;;;;;4979488;28;20178;-74
2023/03/25 06:52:21;;;;;;;10.52;6.88;;;11.50;79.40;;;;;;4981224;28;20181;-74
2023/03/25 06:54:47;;;;;;;9.48;6.63;;;11.60;78.90;;;;;;4979607;28;20174;-74
2023/03/25 06:57:13;;;;;;;8.95;6.88;;;11.70;78.80;;;;;;4977070;28;20171;-74
2023/03/25 06:59:38;;;;;;;9.68;6.97;;;11.80;78.90;;;;;;4979330;28;20565;-73
2023/03/25 07:02:04;;;;;;;10.02;6.85;;;11.90;78.90;;;;;;4979625;28;20181;-74
2023/03/25 07:04:30;;;;;;;15.70;8.05;;;11.90;78.40;;;;;;4996488;28;20186;-74
2023/03/25 07:06:55;;;;;;;11.20;6.63;;;12.00;78.40;;;;;;4977827;28;20178;-73
2023/03/25 07:09:21;;;;;;;8.20;6.93;;;12.10;78.40;;;;;;4975600;28;20214;-74
2023/03/25 07:11:47;;;;;;;12.52;7.72;;;12.10;77.80;;;;;;4983203;28;20178;-74
2023/03/25 07:14:12;;;;;;;15.80;7.50;;;12.20;77.60;;;;;;4979292;28;20213;-73
2023/03/25 07:16:38;;;;;;;10.60;7.43;;;12.30;77.20;;;;;;4976679;28;20177;-74
2023/03/25 07:19:04;;;;;;;13.40;7.50;;;12.30;77.20;;;;;;4980058;28;20185;-73
2023/03/25 07:21:29;;;;;;;13.25;7.65;;;12.40;77.50;;;;;;4973033;28;20182;-74
2023/03/25 07:23:55;;;;;;;13.50;6.90;;;12.50;77.50;;;;;;4974473;28;20236;-73
2023/03/25 07:26:21;;;;;;;11.25;7.22;;;12.60;77.20;;;;;;4978770;28;20284;-73
2023/03/25 07:28:46;;;;;;;11.77;6.65;;;12.70;77.10;;;;;;4977941;28;20265;-74
2023/03/25 07:31:14;;;;;;;10.15;6.18;;;12.80;76.90;;;;;;4977743;28;20186;-73
2023/03/25 07:33:40;;;;;;;9.25;6.40;;;12.90;76.90;;;;;;4975900;28;20213;-73
2023/03/25 07:36:09;;;;;;;12.18;6.80;;;13.00;76.80;;;;;;4974957;28;20603;-73
2023/03/25 07:38:35;;;;;;;9.90;6.80;;;13.10;76.60;;;;;;4977324;28;20175;-73
2023/03/25 07:41:06;;;;;;;14.85;8.00;;;13.20;75.80;;;;;;4980640;28;20205;-73
2023/03/25 07:43:31;;;;;;;14.20;7.95;;;13.30;75.60;;;;;;4974060;28;20186;-76
2023/03/25 07:45:57;;;;;;;8.82;6.65;;;13.40;75.70;;;;;;4974507;28;20341;-76
2023/03/25 07:48:23;;;;;;;16.15;7.47;;;13.50;74.90;;;;;;4976520;28;20197;-75
2023/03/25 07:50:51;;;;;;;12.00;6.70;;;13.60;74.30;;;;;;4974945;28;20232;-75
2023/03/25 07:53:17;;;;;;;8.88;7.13;;;13.70;74.50;;;;;;4977531;28;20214;-75
2023/03/25 07:55:44;;;;;;;13.00;7.10;;;13.80;74.70;;;;;;4980560;28;20183;-74
2023/03/25 07:58:10;;;;;;;14.07;7.75;;;13.90;73.90;;;;;;4980489;28;21087;-76
2023/03/25 08:00:36;;;;;;;10.82;7.75;;;14.00;73.30;;;;;;4976129;28;20810;-76
2023/03/25 08:03:02;;;;;;;9.55;6.50;;;14.20;73.30;;;;;;4974179;28;20265;-76
2023/03/25 08:05:28;;;;;;;9.30;6.65;;;14.40;73.20;;;;;;4979192;28;20217;-76
2023/03/25 08:07:54;;;;;;;9.10;6.82;;;14.50;72.80;;;;;;4975721;28;20236;-75
2023/03/25 08:10:20;;;;;;;11.48;7.18;;;14.70;71.70;;;;;;4979279;28;20685;-76
2023/03/25 08:12:46;;;;;;;9.48;7.00;;;14.90;72.10;;;;;;4982107;28;20224;-76
2023/03/25 08:15:12;;;;;;;11.60;7.93;;;15.10;71.90;;;;;;4980832;28;20736;-76
2023/03/25 08:17:38;;;;;;;10.00;6.45;;;15.30;71.50;;;;;;4985676;28;20880;-72
2023/03/25 08:20:06;;;;;;;12.13;6.75;;;15.60;70.50;;;;;;4978208;28;20178;-73
2023/03/25 08:22:32;;;;;;;10.32;6.53;;;16.00;69.70;;;;;;4980646;28;20182;-73
2023/03/25 08:24:58;;;;;;;11.98;7.25;;;16.40;69.20;;;;;;4982878;28;20197;-73
2023/03/25 08:27:24;;;;;;;7.35;6.57;;;16.90;68.20;;;;;;4978403;28;20249;-74
2023/03/25 08:29:54;;;;;;;8.27;6.25;;;17.40;66.80;;;;;;4982029;28;20177;-74
2023/03/25 08:32:20;;;;;;;8.20;6.40;;;18.10;66.20;;;;;;4979579;28;20190;-73
2023/03/25 08:34:46;;;;;;;8.68;7.05;;;18.70;64.90;;;;;;4976599;28;20216;-74
2023/03/25 08:37:14;;;;;;;12.88;6.85;;;19.30;64.00;;;;;;4983018;28;20186;-75
2023/03/25 08:39:41;;;;;;;7.18;5.90;;;19.80;62.60;;;;;;4983161;28;20240;-73
2023/03/25 08:42:10;;;;;;;12.60;6.50;;;20.30;62.00;;;;;;4977221;28;20582;-73
2023/03/25 08:44:36;;;;;;;9.48;6.43;;;20.90;60.90;;;;;;4980511;28;20202;-74
2023/03/25 08:47:03;;;;;;;9.65;5.47;;;21.60;59.80;;;;;;4983542;28;20239;-75
2023/03/25 08:49:29;;;;;;;7.80;5.43;;;22.50;58.80;;;;;;4978188;28;20638;-74
2023/03/25 08:51:56;;;;;;;7.15;5.82;;;23.40;57.70;;;;;;4982490;28;20182;-75
2023/03/25 08:54:23;;;;;;;9.70;5.90;;;24.30;55.30;;;;;;4978861;28;20236;-75
2023/03/25 08:56:49;;;;;;;6.47;5.80;;;25.30;54.00;;;;;;4979814;28;20313;-74
2023/03/25 08:59:14;;;;;;;10.10;6.88;;;25.70;53.40;;;;;;4980991;28;20196;-74
2023/03/25 09:01:42;;;;;;;10.10;6.93;;;25.80;52.80;;;;;;4984229;28;20582;-72
2023/03/25 09:04:08;;;;;;;5.63;5.25;;;25.80;52.50;;;;;;4978481;28;20182;-74
2023/03/25 09:06:33;;;;;;;8.90;5.82;;;25.70;53.10;;;;;;4979701;28;20576;-73
2023/03/25 09:08:59;;;;;;;10.68;5.88;;;25.90;52.70;;;;;;4985144;28;20185;-73
2023/03/25 09:11:25;;;;;;;7.65;6.05;;;26.30;52.50;;;;;;4976210;28;20190;-74
2023/03/25 09:13:51;;;;;;;6.65;5.40;;;27.00;51.10;;;;;;4979693;28;20655;-75
2023/03/25 09:16:16;;;;;;;8.57;7.77;;;27.90;50.90;;;;;;4975602;28;20471;-76
2023/03/25 09:18:45;;;;;;;10.27;6.50;;;28.40;50.00;;;;;;4977775;28;20213;-77
2023/03/25 09:21:11;;;;;;;6.25;5.43;;;28.60;50.30;;;;;;4980047;28;20186;-76
2023/03/25 09:23:36;;;;;;;9.27;6.15;;;28.90;49.40;;;;;;4977080;28;20730;-77
2023/03/25 09:26:04;;;;;;;20.08;8.00;;;29.50;49.00;;;;;;4977036;28;20187;-82
2023/03/25 09:28:29;;;;;;;9.50;6.32;;;30.00;49.40;;;;;;4977154;28;20186;-80
2023/03/25 09:30:55;;;;;;;8.32;5.78;;;30.40;48.90;;;;;;4979589;28;20194;-78
2023/03/25 09:33:21;;;;;;;6.18;5.60;;;31.00;48.60;;;;;;4976943;28;20207;-78
2023/03/25 09:35:48;;;;;;;6.18;5.13;;;31.20;46.50;;;;;;4978143;28;20656;-79
2023/03/25 09:38:14;;;;;;;6.03;5.45;;;31.30;46.80;;;;;;4979447;28;20185;-79
2023/03/25 09:40:42;;;;;;;6.07;5.50;;;31.90;47.60;;;;;;4980545;28;20181;-79
2023/03/25 09:43:32;;;;;;;7.68;5.00;;;32.50;47.30;;;;;;4980245;28;20244;-79
2023/03/25 09:45:59;;;;;;;4.60;4.20;;;33.20;43.70;;;;;;4982773;28;20889;-79
2023/03/25 09:48:36;;;;;;;4.60;4.30;;;33.40;45.40;;;;;;4978106;28;20248;-79
2023/03/25 09:51:10;;;;;;;4.78;4.38;;;33.20;43.70;;;;;;4978491;28;20260;-79
2023/03/25 09:53:50;;;;;;;5.68;4.82;;;32.90;45.00;;;;;;4982969;28;20277;-79
2023/03/25 09:56:23;;;;;;;6.13;4.18;;;32.70;44.40;;;;;;4983712;28;20174;-80
2023/03/25 09:58:51;;;;;;;3.65;3.42;;;32.50;46.20;;;;;;4981663;28;20181;-79
2023/03/25 10:01:37;;;;;;;4.82;3.63;;;32.30;44.90;;;;;;4984218;28;20198;-79
2023/03/25 10:04:28;;;;;;;3.33;2.90;;;32.10;45.30;;;;;;4983623;28;20205;-79
2023/03/25 10:07:21;;;;;;;3.08;2.78;;;31.60;43.90;;;;;;4985373;28;20213;-78
2023/03/25 10:09:52;;;;;;;3.30;2.80;;;31.10;44.20;;;;;;4978272;28;20209;-78
2023/03/25 10:12:47;;;;;;;1.80;1.80;;;30.90;46.10;;;;;;4979444;28;20170;-79
2023/03/25 10:15:20;;;;;;;4.28;1.90;;;30.80;43.90;;;;;;4981106;28;20273;-79
2023/03/25 10:17:53;;;;;;;1.98;1.88;;;30.80;45.80;;;;;;4985297;28;20566;-79
2023/03/25 10:20:24;;;;;;;1.60;1.60;;;30.60;45.70;;;;;;4977858;28;20739;-79
2023/03/25 10:23:14;;;;;;;2.10;2.03;;;30.40;45.40;;;;;;4984755;28;20179;-78
2023/03/25 10:25:46;;;;;;;2.15;1.58;;;30.30;45.40;;;;;;4989464;28;20182;-79
2023/03/25 10:28:27;;;;;;;2.50;1.83;;;30.10;46.40;;;;;;4981612;28;20185;-79
2023/03/25 10:30:53;;;;;;;1.77;1.67;;;30.00;44.90;;;;;;4992913;28;20812;-78
2023/03/25 10:33:27;;;;;;;1.85;1.75;;;29.80;45.50;;;;;;4996696;28;20236;-78
2023/03/25 10:35:56;;;;;;;1.40;1.30;;;29.40;45.10;;;;;;4993999;28;20180;-78
2023/03/25 10:38:23;;;;;;;1.40;1.30;;;29.20;44.70;;;;;;4990004;28;20177;-78
2023/03/25 10:40:54;;;;;;;1.50;1.40;;;29.10;46.20;;;;;;4979544;28;20182;-78
2023/03/25 10:43:41;;;;;;;1.80;1.80;;;29.10;46.20;;;;;;4981293;28;20186;-79
2023/03/25 10:46:16;;;;;;;1.52;1.52;;;29.60;44.90;;;;;;4979069;28;20310;-78
2023/03/25 10:48:42;;;;;;;1.90;1.90;;;30.60;43.70;;;;;;4980766;28;20591;-78
2023/03/25 10:51:14;;;;;;;1.27;1.27;;;32.00;42.50;;;;;;4979206;28;20269;-79
2023/03/25 10:53:41;;;;;;;1.77;1.70;;;33.30;41.30;;;;;;4978372;28;20197;-78
2023/03/25 10:56:12;;;;;;;2.35;1.92;;;34.00;41.70;;;;;;4979758;28;20190;-77
2023/03/25 10:58:40;;;;;;;2.13;1.88;;;34.10;42.30;;;;;;4979864;28;20635;-79
2023/03/25 11:01:18;;;;;;;2.20;2.10;;;33.90;43.20;;;;;;4978699;28;20275;-77
2023/03/25 11:03:48;;;;;;;2.17;2.17;;;33.60;43.30;;;;;;4977975;28;20181;-78
2023/03/25 11:06:28;;;;;;;1.70;1.70;;;33.50;44.20;;;;;;4975404;28;20185;-79
2023/03/25 11:08:57;;;;;;;1.92;1.83;;;33.70;41.70;;;;;;4977192;28;20177;-77
2023/03/25 11:11:32;;;;;;;1.77;1.70;;;33.80;41.80;;;;;;4978501;28;20216;-77
2023/03/25 11:13:57;;;;;;;1.67;1.67;;;33.80;43.10;;;;;;4976216;28;20220;-77
2023/03/25 11:16:24;;;;;;;2.08;1.98;;;33.90;43.70;;;;;;4979409;28;20177;-77
2023/03/25 11:18:52;;;;;;;2.38;2.10;;;33.90;43.40;;;;;;4979361;28;20177;-78
2023/03/25 11:21:19;;;;;;;7.65;2.60;;;33.90;43.70;;;;;;4977812;28;20270;-78
2023/03/25 11:23:51;;;;;;;2.65;2.42;;;33.70;42.20;;;;;;4974937;28;20189;-79
2023/03/25 11:26:24;;;;;;;1.98;1.88;;;33.40;43.50;;;;;;4968751;28;20221;-78
2023/03/25 11:28:55;;;;;;;1.90;1.90;;;33.00;43.70;;;;;;4964822;28;20205;-78
2023/03/25 11:31:35;;;;;;;1.90;1.88;;;32.70;43.30;;;;;;4964887;28;20305;-78
2023/03/25 11:34:17;;;;;;;1.75;1.75;;;32.60;43.10;;;;;;4971508;28;20204;-79
2023/03/25 11:36:58;;;;;;;1.77;1.48;;;32.80;43.60;;;;;;4974936;28;20889;-78
2023/03/25 11:39:32;;;;;;;2.45;1.40;;;33.40;42.60;;;;;;4968146;28;20252;-82
2023/03/25 11:41:59;;;;;;;1.67;1.58;;;33.80;43.80;;;;;;4972093;28;20645;-78
2023/03/25 11:44:30;;;;;;;1.65;1.65;;;33.90;42.30;;;;;;4972370;28;20704;-78
2023/03/25 11:47:00;;;;;;;1.67;1.55;;;34.10;43.50;;;;;;4976727;28;21525;-78
2023/03/25 11:49:28;;;;;;;1.25;1.25;;;34.60;42.40;;;;;;4974751;28;20344;-78
2023/03/25 11:52:00;;;;;;;1.23;1.23;;;35.20;42.00;;;;;;4971638;28;20668;-77
2023/03/25 11:54:26;;;;;;;1.38;1.38;;;35.90;42.30;;;;;;4974460;28;20217;-77
2023/03/25 11:56:54;;;;;;;1.75;1.75;;;36.20;41.80;;;;;;4980660;28;20686;-76
2023/03/25 11:59:35;;;;;;;1.52;1.42;;;36.20;42.40;;;;;;4984313;28;20190;-76
2023/03/25 12:02:21;;;;;;;1.48;1.42;;;36.10;40.50;;;;;;4979595;28;20710;-77
2023/03/25 12:05:00;;;;;;;2.40;1.42;;;36.20;39.10;;;;;;4977141;28;20217;-77
2023/03/25 12:07:26;;;;;;;2.50;1.60;;;36.10;39.30;;;;;;4985702;28;20199;-77
2023/03/25 12:10:04;;;;;;;1.90;1.80;;;35.50;41.10;;;;;;4982669;28;20174;-76
2023/03/25 12:12:48;;;;;;;1.30;1.30;;;34.50;40.20;;;;;;4980421;28;20184;-76
2023/03/25 12:15:21;;;;;;;1.50;1.50;;;33.70;42.00;;;;;;4981781;28;20206;-76
2023/03/25 12:17:50;;;;;;;1.42;1.42;;;32.80;42.80;;;;;;4979132;28;21635;-76
2023/03/25 12:20:23;;;;;;;1.20;1.20;;;31.90;43.10;;;;;;4979786;28;20193;-77
2023/03/25 12:23:08;;;;;;;1.30;1.30;;;31.10;43.50;;;;;;4980412;28;20594;-76
2023/03/25 12:25:37;;;;;;;1.33;1.33;;;30.20;42.70;;;;;;4983001;28;20191;-77
2023/03/25 12:28:21;;;;;;;1.40;1.40;;;29.40;44.80;;;;;;4985355;28;20629;-77
2023/03/25 12:31:11;;;;;;;1.30;1.30;;;28.70;44.00;;;;;;4985412;28;20182;-77
2023/03/25 12:34:04;;;;;;;1.48;1.40;;;28.30;45.00;;;;;;4979589;28;20183;-77
2023/03/25 12:36:55;;;;;;;1.52;1.42;;;28.10;44.70;;;;;;4980355;28;20586;-76
2023/03/25 12:40:12;;;;;;;2.45;1.50;;;27.90;44.70;;;;;;4981654;28;20193;-77
2023/03/25 12:42:43;;;;;;;1.08;1.08;;;27.60;45.10;;;;;;4922586;29;20179;-77
2023/03/25 12:45:21;;;;;;;1.20;1.20;;;27.10;45.60;;;;;;4926517;29;20274;-79
2023/03/25 12:47:54;;;;;;;1.38;1.38;;;26.70;46.40;;;;;;4922251;29;20207;-79
2023/03/25 12:50:30;;;;;;;1.33;1.33;;;26.50;47.00;;;;;;4925852;29;20219;-79
2023/03/25 12:53:27;;;;;;;1.17;1.17;;;26.20;46.50;;;;;;4920743;29;20219;-79
2023/03/25 12:56:16;;;;;;;2.00;1.20;;;25.90;46.40;;;;;;4918367;29;20275;-79
2023/03/25 12:59:09;;;;;;;1.33;1.33;;;25.60;47.10;;;;;;4916650;29;20195;-78
2023/03/25 13:01:49;;;;;;;3.90;1.50;;;25.30;46.60;;;;;;4922202;29;20196;-78
2023/03/25 13:04:42;;;;;;;1.25;1.25;;;25.00;47.80;;;;;;4925198;29;20925;-78
2023/03/25 13:07:33;;;;;;;1.10;1.10;;;24.70;47.90;;;;;;4923857;29;20203;-79
2023/03/25 13:10:18;;;;;;;1.10;1.10;;;24.40;48.80;;;;;;4920529;29;20261;-79
2023/03/25 13:12:49;;;;;;;1.48;1.45;;;24.20;48.70;;;;;;4934409;28;20194;-79